MET'MAP v2.0
soon released !

Expected late october,
this new version will be
more efficient, smarter,
and hosted on a brand new
server x3 powerfull...
...and still free !


Not compatible ?
Try the mobile version !

LOG IN : | Subscribe | Disclaimer | Who is Orbifly ? |
ICAO code :

TAF - LYPG Podgorica - Montenegro - 25 Feb 2020 13:15 UTC - Data Source NOAA   


- Airport Elevation : 141 ft
- IATA code : TGD
- No reported NOTAMs.


LYPG - Podgorica - Montenegro

Latest METAR recorded : 2015/08/11 08:00 LYPG 110800Z 07003KT 020V100 9999 FEW040 30/14 Q1012 NOSIG
TAF TAF LYPG
Valid from the 25 at 12:00 until the 26 at 12:00 UTC


251100Z 2512/2612 15009KT 9999 FEW040 SCT090 TX18/2513Z TN10/2605Z
TEMPO 2519/2612 15015G25KT 4000 RA
PROB40
TEMPO 2608/2612 17018G30KT 3000 TSRA FEW27CB BKN040

Source NOAA


MET'MAP, your aeronautical weather chart ! - Copyright ORBIFLY December 2007

Programming & Development : Alexandra Zaïnal
Co-Developer : Marc-Olivier Méhu
Technical & hardware support : Manuel Goepfert
Concept & Financing : Baudouin d'Aumeries